Time;durP1;ratioP1;P1;durP2;ratioP2;P2;SDS_P1;SDS_P2;PMS_P1;PMS_P2;Temp;Humidity;BMP_temperature;BMP_pressure;BME280_temperature;BME280_humidity;BME280_pressure;Samples;Min_cycle;Max_cycle;Signal;HPM_P1;HPM_P2
2021/05/05 00:01:53;;;;;;;5.90;1.30;;;7.70;99.90;;;;;;5067139;28;20257;-50
2021/05/05 00:04:21;;;;;;;5.33;1.20;;;7.70;99.90;;;;;;5068184;28;20285;-50
2021/05/05 00:06:48;;;;;;;5.67;1.20;;;7.70;99.90;;;;;;5067671;28;20308;-50
2021/05/05 00:09:17;;;;;;;3.67;1.10;;;7.70;99.90;;;;;;5065489;28;20238;-51
2021/05/05 00:11:45;;;;;;;7.37;1.60;;;7.70;99.90;;;;;;5066582;28;20245;-49
2021/05/05 00:14:16;;;;;;;6.37;1.57;;;7.70;99.90;;;;;;5067990;28;20282;-50
2021/05/05 00:16:45;;;;;;;7.70;1.77;;;7.70;99.90;;;;;;5065602;28;20641;-50
2021/05/05 00:19:15;;;;;;;6.07;1.30;;;7.70;99.90;;;;;;5062162;28;20327;-52
2021/05/05 00:21:43;;;;;;;6.70;1.40;;;7.70;99.90;;;;;;5079815;28;20293;-50
2021/05/05 00:24:12;;;;;;;4.20;1.37;;;7.70;99.90;;;;;;5084449;28;20238;-51
2021/05/05 00:26:40;;;;;;;6.53;1.53;;;7.60;99.90;;;;;;5078353;28;20263;-50
2021/05/05 00:29:08;;;;;;;5.97;1.97;;;7.70;99.90;;;;;;5067113;28;20587;-50
2021/05/05 00:31:36;;;;;;;3.43;1.30;;;7.70;99.90;;;;;;5066786;28;20241;-50
2021/05/05 00:34:05;;;;;;;4.77;1.10;;;7.70;99.90;;;;;;5083247;28;20274;-51
2021/05/05 00:36:32;;;;;;;5.17;1.67;;;7.70;99.90;;;;;;5071055;28;20245;-50
2021/05/05 00:39:00;;;;;;;4.97;1.20;;;7.70;99.90;;;;;;5070708;28;20231;-50
2021/05/05 00:41:28;;;;;;;5.83;1.50;;;7.70;99.90;;;;;;5070616;28;20592;-50
2021/05/05 00:43:55;;;;;;;6.67;1.60;;;7.70;99.90;;;;;;5070170;28;20224;-51
2021/05/05 00:46:23;;;;;;;3.03;1.10;;;7.70;99.90;;;;;;5070667;28;20239;-51
2021/05/05 00:48:50;;;;;;;7.17;1.83;;;7.70;99.90;;;;;;5070201;28;20784;-50
2021/05/05 00:51:18;;;;;;;6.23;1.27;;;7.70;99.90;;;;;;5070267;28;20240;-50
2021/05/05 00:53:46;;;;;;;4.03;1.10;;;7.70;99.90;;;;;;5070869;28;20775;-50
2021/05/05 00:56:13;;;;;;;5.93;1.27;;;7.70;99.90;;;;;;5070981;28;20243;-54
2021/05/05 00:58:41;;;;;;;7.33;1.63;;;7.70;99.90;;;;;;5070619;28;20735;-51
2021/05/05 01:01:08;;;;;;;4.93;1.40;;;7.70;99.90;;;;;;5086061;28;20243;-50
2021/05/05 01:03:37;;;;;;;6.37;1.57;;;7.70;99.90;;;;;;5070132;28;20323;-50
2021/05/05 01:06:06;;;;;;;4.53;1.07;;;7.70;99.90;;;;;;5086043;28;20546;-50
2021/05/05 01:08:35;;;;;;;7.47;1.13;;;7.70;99.90;;;;;;5068544;28;20372;-50
2021/05/05 01:11:03;;;;;;;3.60;1.03;;;7.70;99.90;;;;;;5068904;28;20306;-50
2021/05/05 01:13:34;;;;;;;7.85;1.42;;;7.70;99.90;;;;;;2794544;28;10002337;-50
2021/05/05 01:16:02;;;;;;;5.20;1.10;;;7.70;99.90;;;;;;3300727;28;10002354;-51
2021/05/05 01:18:29;;;;;;;9.20;2.50;;;7.70;99.90;;;;;;5056221;28;20473;-49
2021/05/05 01:21:00;;;;;;;4.60;1.13;;;7.70;99.90;;;;;;5061636;28;20943;-50
2021/05/05 01:23:28;;;;;;;3.07;1.07;;;7.70;99.90;;;;;;5054633;28;20247;-50
2021/05/05 01:25:56;;;;;;;3.43;1.00;;;7.70;99.90;;;;;;5049912;28;20342;-52
2021/05/05 01:28:24;;;;;;;2.87;1.13;;;7.70;99.90;;;;;;5048636;28;20719;-50
2021/05/05 01:30:52;;;;;;;3.87;1.20;;;7.70;99.90;;;;;;5049714;28;20563;-50
2021/05/05 01:33:21;;;;;;;7.70;1.63;;;7.70;99.90;;;;;;5050113;28;20290;-50
2021/05/05 01:35:50;;;;;;;5.27;1.27;;;7.70;99.90;;;;;;5048655;28;20777;-50
2021/05/05 01:38:19;;;;;;;3.83;1.30;;;7.70;99.90;;;;;;5049384;28;20236;-51
2021/05/05 01:40:49;;;;;;;4.87;1.10;;;7.60;99.90;;;;;;5049488;28;20596;-51
2021/05/05 01:43:16;;;;;;;4.10;1.00;;;7.60;99.90;;;;;;5048569;28;20328;-50
2021/05/05 01:45:43;;;;;;;4.10;1.07;;;7.60;99.90;;;;;;5049462;28;20227;-51
2021/05/05 01:48:11;;;;;;;4.80;1.20;;;7.60;99.90;;;;;;5030068;28;20273;-50
2021/05/05 01:50:39;;;;;;;4.47;1.20;;;7.60;99.90;;;;;;5028014;28;20237;-50
2021/05/05 01:53:08;;;;;;;4.63;1.20;;;7.60;99.90;;;;;;5028155;28;20237;-50
2021/05/05 01:55:39;;;;;;;4.97;1.00;;;7.60;99.90;;;;;;5029471;28;20573;-51
2021/05/05 01:58:11;;;;;;;7.87;1.30;;;7.60;99.90;;;;;;5045187;28;20286;-49
2021/05/05 02:00:39;;;;;;;6.40;1.10;;;7.60;99.90;;;;;;5029254;28;20369;-49
2021/05/05 02:03:10;;;;;;;3.37;0.90;;;7.50;99.90;;;;;;5029902;28;20264;-52
2021/05/05 02:05:47;;;;;;;4.17;1.00;;;7.50;99.90;;;;;;5044391;28;20228;-51
2021/05/05 02:08:27;;;;;;;4.73;1.03;;;7.40;99.90;;;;;;5027825;28;20233;-50
2021/05/05 02:10:55;;;;;;;2.37;1.00;;;7.40;99.90;;;;;;5064745;28;20610;-51
2021/05/05 02:13:23;;;;;;;5.60;1.37;;;7.40;99.90;;;;;;5052873;28;20238;-49
2021/05/05 02:15:52;;;;;;;3.57;1.20;;;7.50;99.90;;;;;;5058208;28;20301;-50
2021/05/05 02:18:23;;;;;;;5.77;1.27;;;7.50;99.90;;;;;;5059224;28;20248;-50
2021/05/05 02:20:51;;;;;;;4.90;1.00;;;7.50;99.90;;;;;;5051424;28;20279;-51
2021/05/05 02:23:19;;;;;;;8.93;1.40;;;7.50;99.90;;;;;;5063382;28;20310;-51
2021/05/05 02:25:48;;;;;;;5.23;1.40;;;7.50;99.90;;;;;;5027700;28;20228;-50
2021/05/05 02:28:16;;;;;;;6.87;1.23;;;7.50;99.90;;;;;;5029113;28;20246;-50
2021/05/05 02:30:54;;;;;;;5.93;1.47;;;7.40;99.90;;;;;;5027349;28;20535;-52
2021/05/05 02:33:24;;;;;;;7.27;1.33;;;7.40;99.90;;;;;;5028552;28;20244;-49
2021/05/05 02:35:52;;;;;;;4.53;1.50;;;7.40;99.90;;;;;;5047530;28;20264;-50
2021/05/05 02:38:21;;;;;;;4.17;1.20;;;7.40;99.90;;;;;;5048943;28;20260;-50
2021/05/05 02:40:49;;;;;;;5.17;1.30;;;7.40;99.90;;;;;;5048352;28;20278;-51
2021/05/05 02:43:21;;;;;;;4.47;1.10;;;7.40;99.90;;;;;;5062964;28;20236;-51
2021/05/05 02:45:50;;;;;;;5.07;1.23;;;7.40;99.90;;;;;;5043869;28;20251;-50
2021/05/05 02:48:17;;;;;;;7.23;1.30;;;7.40;99.90;;;;;;5055250;28;20240;-50
2021/05/05 02:50:45;;;;;;;8.33;1.60;;;7.40;99.90;;;;;;5063166;28;20247;-50
2021/05/05 02:53:12;;;;;;;6.67;1.43;;;7.40;99.90;;;;;;5048826;28;20603;-50
2021/05/05 02:55:40;;;;;;;9.80;1.60;;;7.40;99.90;;;;;;5047336;28;20282;-51
2021/05/05 02:58:07;;;;;;;6.97;1.50;;;7.40;99.90;;;;;;5037731;28;20256;-50
2021/05/05 03:00:35;;;;;;;7.27;1.60;;;7.30;99.90;;;;;;5027693;28;20635;-50
2021/05/05 03:03:03;;;;;;;6.07;1.37;;;7.30;99.90;;;;;;5028281;28;20307;-50
2021/05/05 03:05:30;;;;;;;7.00;1.27;;;7.20;99.90;;;;;;5028679;28;20248;-51
2021/05/05 03:07:57;;;;;;;6.37;1.30;;;7.10;99.90;;;;;;5038909;28;20228;-50
2021/05/05 03:10:25;;;;;;;3.97;1.30;;;7.10;99.90;;;;;;5055061;28;20595;-51
2021/05/05 03:12:52;;;;;;;5.30;1.50;;;7.10;99.90;;;;;;5053050;28;20703;-50
2021/05/05 03:15:20;;;;;;;5.70;1.63;;;7.10;99.90;;;;;;5057478;28;20247;-50
2021/05/05 03:17:53;;;;;;;3.40;1.20;;;7.10;99.90;;;;;;5036952;28;20243;-51
2021/05/05 03:20:21;;;;;;;5.77;1.27;;;7.10;99.90;;;;;;5047548;28;20740;-50
2021/05/05 03:22:49;;;;;;;7.00;1.77;;;7.00;99.90;;;;;;5047669;28;20762;-50
2021/05/05 03:25:16;;;;;;;6.23;1.47;;;7.00;99.90;;;;;;5048154;28;20729;-50
2021/05/05 03:27:43;;;;;;;8.03;1.40;;;7.00;99.90;;;;;;5041691;28;20286;-51
2021/05/05 03:30:12;;;;;;;6.27;1.47;;;7.00;99.90;;;;;;5027585;28;20236;-50
2021/05/05 03:32:42;;;;;;;4.80;1.40;;;7.10;99.90;;;;;;5027819;28;20240;-50
2021/05/05 03:35:11;;;;;;;6.17;1.37;;;7.00;99.90;;;;;;5028204;28;20231;-51
2021/05/05 03:37:39;;;;;;;8.13;1.37;;;7.00;99.90;;;;;;5033308;28;20235;-50
2021/05/05 03:40:09;;;;;;;3.90;1.60;;;7.00;99.90;;;;;;5047296;28;20614;-50
2021/05/05 03:42:37;;;;;;;6.87;1.73;;;7.00;99.90;;;;;;5048516;28;20239;-50
2021/05/05 03:45:07;;;;;;;6.47;1.30;;;6.90;99.90;;;;;;5048153;28;20244;-50
2021/05/05 03:47:36;;;;;;;3.87;1.43;;;7.00;99.90;;;;;;5042771;28;20254;-50
2021/05/05 03:50:06;;;;;;;7.60;1.50;;;7.00;99.90;;;;;;5027225;28;21685;-49
2021/05/05 03:52:34;;;;;;;4.10;1.20;;;7.00;99.90;;;;;;5032685;28;20246;-50
2021/05/05 03:55:02;;;;;;;6.80;1.50;;;6.90;99.90;;;;;;5028166;28;20229;-52
2021/05/05 03:57:30;;;;;;;6.67;1.70;;;7.00;99.90;;;;;;5030893;28;20232;-50
2021/05/05 03:59:58;;;;;;;7.27;1.67;;;6.90;99.90;;;;;;5047186;28;20235;-50
2021/05/05 04:02:25;;;;;;;6.80;1.50;;;6.90;99.90;;;;;;5046804;28;20244;-49
2021/05/05 04:04:53;;;;;;;6.07;1.30;;;6.90;99.90;;;;;;5047581;28;20770;-50
2021/05/05 04:07:20;;;;;;;7.27;1.57;;;6.90;99.90;;;;;;5041940;28;20236;-49
2021/05/05 04:09:48;;;;;;;6.87;1.50;;;6.90;99.90;;;;;;5043532;28;20323;-50
2021/05/05 04:12:16;;;;;;;9.47;1.67;;;6.90;99.90;;;;;;5060253;28;20231;-50
2021/05/05 04:14:43;;;;;;;5.70;1.70;;;6.90;99.90;;;;;;5049223;28;20238;-50
2021/05/05 04:17:29;;;;;;;5.30;1.73;;;6.90;99.90;;;;;;5050453;28;20243;-50
2021/05/05 04:20:16;;;;;;;8.23;1.80;;;6.90;99.90;;;;;;5031382;28;20363;-49
2021/05/05 04:23:01;;;;;;;8.10;1.57;;;6.90;99.90;;;;;;5017123;28;20383;-50
2021/05/05 04:25:48;;;;;;;7.67;1.80;;;6.90;99.90;;;;;;5013406;28;20320;-50
2021/05/05 04:28:15;;;;;;;5.97;1.80;;;6.80;99.90;;;;;;5011669;28;20241;-51
2021/05/05 04:30:43;;;;;;;6.17;1.67;;;6.80;99.90;;;;;;5011126;28;20236;-50
2021/05/05 04:33:10;;;;;;;7.13;1.67;;;6.90;99.90;;;;;;5011885;28;20241;-50
2021/05/05 04:35:38;;;;;;;8.57;1.90;;;6.80;99.90;;;;;;5011360;28;20241;-51
2021/05/05 04:38:05;;;;;;;9.00;1.73;;;6.80;99.90;;;;;;5025304;28;20275;-51
2021/05/05 04:40:32;;;;;;;7.33;2.03;;;6.80;99.90;;;;;;5030082;28;20264;-51
2021/05/05 04:43:01;;;;;;;8.60;1.70;;;6.80;99.90;;;;;;5030745;28;20732;-49
2021/05/05 04:45:28;;;;;;;6.03;1.23;;;6.90;99.90;;;;;;5031039;28;20243;-50
2021/05/05 04:47:56;;;;;;;6.20;1.60;;;6.90;99.90;;;;;;5011762;28;20233;-50
2021/05/05 04:50:23;;;;;;;6.63;1.67;;;6.90;99.90;;;;;;5010038;28;20299;-50
2021/05/05 04:52:51;;;;;;;5.20;1.47;;;6.90;99.90;;;;;;5010404;28;20303;-51
2021/05/05 04:55:18;;;;;;;6.23;2.00;;;6.90;99.90;;;;;;5011474;28;20233;-50
2021/05/05 04:57:46;;;;;;;9.53;1.70;;;6.90;99.90;;;;;;5027817;28;20760;-50
2021/05/05 05:00:16;;;;;;;7.23;1.67;;;6.90;99.90;;;;;;5030680;28;20291;-50
2021/05/05 05:02:43;;;;;;;7.40;1.60;;;6.90;99.90;;;;;;5030879;28;20287;-49
2021/05/05 05:05:11;;;;;;;4.43;1.60;;;6.90;99.90;;;;;;5023461;28;20232;-49
2021/05/05 05:07:39;;;;;;;5.37;1.60;;;6.90;99.90;;;;;;5015346;28;20233;-50
2021/05/05 05:10:08;;;;;;;9.10;1.93;;;6.90;99.90;;;;;;5020320;28;20243;-50
2021/05/05 05:12:35;;;;;;;5.67;1.67;;;6.90;99.90;;;;;;5012493;28;20248;-50
2021/05/05 05:15:04;;;;;;;6.23;1.90;;;6.90;99.90;;;;;;5024078;28;20225;-50
2021/05/05 05:17:33;;;;;;;8.97;2.00;;;6.90;99.90;;;;;;5010716;28;20713;-49
2021/05/05 05:20:00;;;;;;;8.70;1.57;;;6.90;99.90;;;;;;5009203;28;20240;-51
2021/05/05 05:22:28;;;;;;;7.57;1.97;;;7.00;99.90;;;;;;5010396;28;20732;-49
2021/05/05 05:24:55;;;;;;;6.03;1.60;;;7.00;99.90;;;;;;5013652;28;20668;-49
2021/05/05 05:27:22;;;;;;;3.90;1.80;;;7.00;99.90;;;;;;5036642;28;20244;-51
2021/05/05 05:29:50;;;;;;;8.90;2.20;;;7.00;99.90;;;;;;5040924;28;20235;-51
2021/05/05 05:32:17;;;;;;;6.50;1.60;;;7.10;99.90;;;;;;5049789;28;20853;-50
2021/05/05 05:34:46;;;;;;;5.80;1.70;;;7.10;99.90;;;;;;5046277;28;20244;-49
2021/05/05 05:37:14;;;;;;;6.03;1.63;;;7.00;99.90;;;;;;5029301;28;20651;-49
2021/05/05 05:39:45;;;;;;;9.13;1.70;;;7.10;99.90;;;;;;5029528;28;20271;-50
2021/05/05 05:42:12;;;;;;;8.90;1.80;;;7.10;99.90;;;;;;5023319;28;20247;-50
2021/05/05 05:44:40;;;;;;;5.97;1.63;;;7.00;99.90;;;;;;5021328;28;20259;-50
2021/05/05 05:47:08;;;;;;;5.53;1.60;;;7.00;99.90;;;;;;5018258;28;20578;-49
2021/05/05 05:49:35;;;;;;;11.27;2.10;;;7.00;99.90;;;;;;5027771;28;20256;-51
2021/05/05 05:52:04;;;;;;;7.60;1.70;;;7.00;99.90;;;;;;5029248;28;20315;-49
2021/05/05 05:54:31;;;;;;;8.93;2.20;;;7.00;99.90;;;;;;5026114;28;20656;-49
2021/05/05 05:56:59;;;;;;;8.17;1.97;;;6.90;99.90;;;;;;5010614;28;20566;-50
2021/05/05 05:59:26;;;;;;;5.50;1.60;;;6.90;99.90;;;;;;5020520;28;20763;-49
2021/05/05 06:01:53;;;;;;;5.17;2.07;;;6.90;99.90;;;;;;5018500;28;20772;-50
2021/05/05 06:04:21;;;;;;;7.43;1.47;;;6.90;99.90;;;;;;5019631;28;20247;-50
2021/05/05 06:06:48;;;;;;;7.70;1.80;;;6.90;99.90;;;;;;5046093;28;20555;-50
2021/05/05 06:09:16;;;;;;;4.53;1.50;;;6.90;99.90;;;;;;5016723;28;20573;-49
2021/05/05 06:11:44;;;;;;;9.07;1.70;;;6.90;99.90;;;;;;5009227;28;20273;-53
2021/05/05 06:14:13;;;;;;;6.90;2.37;;;6.90;99.90;;;;;;5009418;28;20535;-50
2021/05/05 06:16:40;;;;;;;6.97;1.93;;;7.00;99.90;;;;;;5009778;28;20290;-50
2021/05/05 06:19:08;;;;;;;4.93;1.67;;;7.00;99.90;;;;;;5009798;28;20319;-53
2021/05/05 06:21:37;;;;;;;7.67;1.90;;;7.00;99.90;;;;;;5012267;28;20247;-51
2021/05/05 06:24:06;;;;;;;2.87;1.50;;;7.00;99.90;;;;;;5013120;28;20236;-50
2021/05/05 06:26:34;;;;;;;5.07;1.50;;;7.00;99.90;;;;;;5033006;28;20232;-50
2021/05/05 06:29:02;;;;;;;6.93;1.70;;;7.00;99.90;;;;;;5031915;28;20233;-51
2021/05/05 06:31:29;;;;;;;5.63;1.63;;;7.00;99.90;;;;;;5039555;28;20499;-50
2021/05/05 06:33:57;;;;;;;7.97;1.53;;;6.90;99.90;;;;;;5038131;28;20232;-50
2021/05/05 06:36:27;;;;;;;6.17;1.63;;;6.90;99.90;;;;;;5047371;28;20271;-51
2021/05/05 06:38:54;;;;;;;5.63;1.70;;;6.90;99.90;;;;;;5046601;28;20235;-49
2021/05/05 06:41:22;;;;;;;5.17;1.33;;;6.90;99.90;;;;;;5045542;28;20235;-50
2021/05/05 06:43:50;;;;;;;5.40;1.33;;;6.90;99.90;;;;;;5027522;28;20240;-51
2021/05/05 06:46:17;;;;;;;6.30;1.30;;;6.90;99.90;;;;;;5026814;28;20251;-50
2021/05/05 06:48:44;;;;;;;6.03;1.47;;;6.90;99.90;;;;;;5028066;28;20570;-50
2021/05/05 06:51:12;;;;;;;5.23;1.53;;;6.90;99.90;;;;;;5028038;28;20251;-50
2021/05/05 06:53:39;;;;;;;3.77;1.37;;;6.90;99.90;;;;;;5028606;28;20233;-50
2021/05/05 06:56:06;;;;;;;5.83;1.37;;;6.80;99.90;;;;;;5019720;28;20244;-50
2021/05/05 06:58:34;;;;;;;4.33;1.47;;;6.80;99.90;;;;;;5010278;28;20295;-50
2021/05/05 07:01:02;;;;;;;4.50;1.50;;;6.90;99.90;;;;;;5011888;28;20247;-50
2021/05/05 07:03:30;;;;;;;7.57;1.90;;;6.90;99.90;;;;;;5046004;28;20234;-50
2021/05/05 07:05:58;;;;;;;3.10;1.30;;;6.90;99.90;;;;;;5056134;28;20236;-51
2021/05/05 07:08:26;;;;;;;5.27;1.60;;;6.80;99.90;;;;;;5040711;28;20240;-49
2021/05/05 07:10:54;;;;;;;5.10;1.30;;;6.80;99.90;;;;;;5027162;28;20320;-50
2021/05/05 07:13:21;;;;;;;3.53;1.30;;;6.80;99.90;;;;;;5028410;28;20331;-51
2021/05/05 07:15:48;;;;;;;5.97;1.70;;;6.80;99.90;;;;;;5047121;28;20235;-50
2021/05/05 07:18:17;;;;;;;5.50;1.40;;;6.80;99.90;;;;;;5039637;28;20603;-50
2021/05/05 07:20:45;;;;;;;3.80;1.70;;;6.80;99.90;;;;;;5047304;28;20231;-50
2021/05/05 07:23:12;;;;;;;6.20;2.00;;;6.70;99.90;;;;;;5046545;28;20251;-51
2021/05/05 07:25:39;;;;;;;6.37;1.67;;;6.70;99.90;;;;;;5027449;28;20324;-51
2021/05/05 07:28:08;;;;;;;5.63;1.40;;;6.70;99.90;;;;;;5043285;28;20248;-50
2021/05/05 07:30:36;;;;;;;3.80;1.50;;;6.70;99.90;;;;;;5046578;28;20553;-52
2021/05/05 07:33:04;;;;;;;5.70;1.30;;;6.80;99.90;;;;;;5047842;28;20243;-51
2021/05/05 07:59:46;;;;;;;8.97;2.30;;;7.20;99.90;;;;;;5085251;27;20758;-51
2021/05/05 08:02:14;;;;;;;7.00;2.00;;;7.20;99.90;;;;;;5056092;28;20381;-51
2021/05/05 08:04:49;;;;;;;6.47;2.23;;;7.20;99.90;;;;;;5031763;28;20686;-52
2021/05/05 08:07:18;;;;;;;8.83;2.33;;;7.20;99.90;;;;;;5047270;28;20285;-51
2021/05/05 08:09:52;;;;;;;10.27;2.83;;;7.20;99.90;;;;;;5044274;28;20238;-52
2021/05/05 08:12:20;;;;;;;8.20;2.17;;;7.30;99.90;;;;;;5052799;28;20630;-51
2021/05/05 08:14:51;;;;;;;8.07;2.30;;;7.30;99.90;;;;;;5062986;28;20324;-53
2021/05/05 08:17:19;;;;;;;9.33;1.93;;;7.30;99.90;;;;;;5064870;28;20327;-52
2021/05/05 08:19:47;;;;;;;6.43;1.90;;;7.20;99.90;;;;;;5063758;28;20280;-52
2021/05/05 08:22:15;;;;;;;7.70;1.97;;;7.20;99.90;;;;;;5063117;28;20698;-52
2021/05/05 08:24:42;;;;;;;8.40;2.33;;;7.20;99.90;;;;;;5064592;28;20242;-51
2021/05/05 08:27:10;;;;;;;8.17;2.50;;;7.20;99.90;;;;;;5064494;28;20265;-52
2021/05/05 08:29:39;;;;;;;9.47;2.37;;;7.10;99.90;;;;;;5063384;28;20255;-51
2021/05/05 08:32:08;;;;;;;9.23;2.40;;;7.10;99.90;;;;;;5063386;28;20238;-51
2021/05/05 08:34:36;;;;;;;8.17;2.30;;;7.10;99.90;;;;;;5064147;28;20239;-52
2021/05/05 08:37:04;;;;;;;9.63;2.10;;;7.10;99.90;;;;;;5064063;28;20689;-52
2021/05/05 08:39:31;;;;;;;9.83;2.20;;;7.10;99.90;;;;;;5063762;28;20312;-52
2021/05/05 08:41:58;;;;;;;9.03;2.00;;;7.10;99.90;;;;;;5063667;28;20236;-52
2021/05/05 08:44:26;;;;;;;9.17;1.73;;;7.10;99.90;;;;;;5063124;28;20315;-52
2021/05/05 08:46:55;;;;;;;9.37;2.50;;;7.10;99.90;;;;;;5064164;28;20235;-52
2021/05/05 08:49:23;;;;;;;8.00;2.00;;;7.10;99.90;;;;;;5063724;28;20254;-52
2021/05/05 08:51:51;;;;;;;8.07;2.20;;;7.20;99.90;;;;;;5062925;28;20239;-51
2021/05/05 08:54:18;;;;;;;7.90;2.23;;;7.20;99.90;;;;;;5063405;28;20235;-52
2021/05/05 08:56:46;;;;;;;5.73;1.70;;;7.20;99.90;;;;;;5060541;28;20242;-53
2021/05/05 08:59:16;;;;;;;5.50;1.60;;;7.20;99.90;;;;;;5051634;28;20674;-52
2021/05/05 09:01:44;;;;;;;3.77;1.13;;;7.30;99.90;;;;;;5049708;28;20248;-52
2021/05/05 09:04:13;;;;;;;4.67;1.80;;;7.30;99.90;;;;;;5047715;28;20237;-54
2021/05/05 09:06:51;;;;;;;7.03;1.90;;;7.40;99.90;;;;;;5063845;28;20322;-56
2021/05/05 09:09:40;;;;;;;5.97;1.53;;;7.40;99.90;;;;;;5058314;28;20297;-56
2021/05/05 09:24:27;;;;;;;4.83;1.90;;;7.60;99.90;;;;;;5101984;27;20640;-55
2021/05/05 09:26:57;;;;;;;4.10;1.53;;;7.70;99.90;;;;;;5070755;27;20289;-54
2021/05/05 09:29:45;;;;;;;10.90;2.47;;;7.70;99.90;;;;;;5081822;27;20238;-54
2021/05/05 09:32:15;;;;;;;6.53;1.90;;;7.70;99.90;;;;;;5082199;27;20241;-53
2021/05/05 09:34:55;;;;;;;7.37;2.10;;;7.70;99.90;;;;;;5083534;28;20239;-53
2021/05/05 09:37:24;;;;;;;6.60;2.00;;;7.70;99.90;;;;;;5064857;28;20263;-57
2021/05/05 09:40:00;;;;;;;7.80;2.00;;;7.70;99.90;;;;;;5064499;28;20231;-53
2021/05/05 09:42:30;;;;;;;7.27;2.73;;;7.70;99.90;;;;;;5068230;28;20276;-53
2021/05/05 09:44:59;;;;;;;9.10;2.23;;;7.80;99.90;;;;;;5084945;28;20241;-54
2021/05/05 09:47:48;;;;;;;5.73;1.73;;;7.80;99.90;;;;;;5064410;28;20242;-52
2021/05/05 09:50:34;;;;;;;9.07;2.50;;;7.80;99.90;;;;;;5063781;28;20235;-54
2021/05/05 09:53:22;;;;;;;6.63;1.67;;;7.90;99.90;;;;;;5056929;28;20241;-54
2021/05/05 09:56:12;;;;;;;8.00;1.80;;;8.00;99.90;;;;;;5064401;28;20239;-53
2021/05/05 09:58:41;;;;;;;5.23;1.73;;;7.90;99.90;;;;;;5063937;28;20238;-52
2021/05/05 10:01:21;;;;;;;7.87;2.07;;;7.90;99.90;;;;;;5062668;28;20310;-52
2021/05/05 10:03:54;;;;;;;4.17;1.60;;;8.00;99.90;;;;;;5064046;28;20321;-54
2021/05/05 10:06:32;;;;;;;4.93;1.40;;;8.00;99.90;;;;;;5064130;28;20782;-53
2021/05/05 10:09:03;;;;;;;5.67;1.47;;;8.00;99.90;;;;;;5063784;28;20253;-52
2021/05/05 10:11:34;;;;;;;4.03;1.47;;;7.90;99.90;;;;;;5062689;28;20644;-52
2021/05/05 10:14:04;;;;;;;3.40;1.47;;;7.90;99.90;;;;;;5064494;28;20243;-54
2021/05/05 10:16:35;;;;;;;4.30;1.50;;;7.90;99.90;;;;;;5064069;28;20841;-54
2021/05/05 10:19:04;;;;;;;3.73;1.30;;;7.90;99.90;;;;;;5063887;28;20598;-53
2021/05/05 10:21:34;;;;;;;4.07;1.47;;;8.00;99.90;;;;;;5062087;28;20718;-52
2021/05/05 10:24:02;;;;;;;5.60;1.57;;;8.10;99.90;;;;;;5063280;28;20594;-52
2021/05/05 10:26:33;;;;;;;5.50;1.83;;;8.40;99.90;;;;;;5054462;28;20576;-52
2021/05/05 10:29:01;;;;;;;5.63;1.50;;;8.60;99.90;;;;;;5063141;28;20627;-54
2021/05/05 10:31:28;;;;;;;7.37;1.90;;;8.90;99.90;;;;;;5062287;28;20294;-54
2021/05/05 10:33:59;;;;;;;5.13;1.63;;;9.20;99.90;;;;;;5059209;28;20311;-52
2021/05/05 10:36:36;;;;;;;5.93;1.50;;;9.40;99.90;;;;;;5049655;28;20720;-52
2021/05/05 10:39:32;;;;;;;4.13;1.60;;;9.30;99.90;;;;;;5048879;28;20236;-52
2021/05/05 10:42:13;;;;;;;6.53;1.87;;;9.20;99.90;;;;;;5048480;28;20244;-51
2021/05/05 10:44:51;;;;;;;6.83;1.60;;;9.10;99.90;;;;;;5047625;28;20233;-52
2021/05/05 10:47:27;;;;;;;3.43;1.50;;;8.90;99.90;;;;;;5048822;28;20231;-55
2021/05/05 10:50:16;;;;;;;7.10;1.50;;;8.90;99.90;;;;;;5093245;22;20252;-53
2021/05/05 10:53:07;;;;;;;4.70;1.30;;;8.70;99.90;;;;;;5064453;28;20234;-52
2021/05/05 10:55:55;;;;;;;3.47;1.30;;;8.50;99.90;;;;;;5062903;28;20970;-52
2021/05/05 10:58:27;;;;;;;1.90;1.10;;;8.50;99.90;;;;;;5062825;28;20235;-52
2021/05/05 11:01:37;;;;;;;3.33;1.20;;;8.50;99.90;;;;;;5067478;28;20239;-52
2021/05/05 11:08:27;;;;;;;2.60;1.00;;;8.30;99.90;;;;;;5054506;28;20225;-52
2021/05/05 11:10:57;;;;;;;2.00;1.00;;;8.30;99.90;;;;;;5022223;28;20287;-55
2021/05/05 11:13:44;;;;;;;3.43;1.20;;;8.30;99.90;;;;;;5056334;28;20236;-54
2021/05/05 11:16:11;;;;;;;3.20;1.30;;;8.40;99.90;;;;;;5067212;28;20729;-55
2021/05/05 11:18:45;;;;;;;2.70;1.30;;;8.80;99.90;;;;;;5068657;28;20227;-52
2021/05/05 11:21:45;;;;;;;5.57;1.60;;;9.00;99.90;;;;;;5068213;28;20258;-51
2021/05/05 11:24:30;;;;;;;4.73;1.30;;;9.20;99.90;;;;;;5064908;28;20227;-56
2021/05/05 11:26:59;;;;;;;3.13;1.10;;;9.40;99.90;;;;;;5068071;28;20244;-56
2021/05/05 11:29:33;;;;;;;2.67;1.17;;;9.50;99.90;;;;;;5068647;28;20232;-52
2021/05/05 11:32:07;;;;;;;2.23;1.30;;;9.40;99.90;;;;;;5068056;28;20241;-52
2021/05/05 11:34:37;;;;;;;2.77;1.10;;;9.20;99.90;;;;;;5049014;28;20251;-52
2021/05/05 11:37:22;;;;;;;2.63;1.07;;;9.30;99.90;;;;;;5062178;28;20245;-51
2021/05/05 11:39:55;;;;;;;4.83;1.17;;;9.10;99.90;;;;;;5067793;28;20244;-54
2021/05/05 11:42:25;;;;;;;4.07;1.20;;;9.00;99.90;;;;;;5067445;28;20727;-53
2021/05/05 11:45:09;;;;;;;2.47;1.10;;;9.00;99.90;;;;;;5067851;28;20591;-52
2021/05/05 11:47:40;;;;;;;4.87;1.43;;;8.80;99.90;;;;;;5066128;28;20291;-51
2021/05/05 11:50:12;;;;;;;3.60;1.90;;;8.80;99.90;;;;;;5066471;28;20320;-54
2021/05/05 11:52:42;;;;;;;5.80;1.60;;;8.70;99.90;;;;;;5065815;28;20664;-52
2021/05/05 11:55:19;;;;;;;4.70;1.60;;;8.70;99.90;;;;;;5067444;28;20250;-51
2021/05/05 11:57:49;;;;;;;2.90;1.53;;;8.60;99.90;;;;;;5058714;28;20227;-52
2021/05/05 12:00:21;;;;;;;3.77;1.53;;;8.60;99.90;;;;;;5065027;28;20232;-51
2021/05/05 12:02:50;;;;;;;4.30;1.60;;;8.50;99.90;;;;;;5064616;28;20301;-53
2021/05/05 12:05:27;;;;;;;5.20;1.77;;;8.40;99.90;;;;;;5061533;28;20242;-51
2021/05/05 12:08:06;;;;;;;5.97;2.03;;;8.30;99.90;;;;;;5065122;28;20297;-51
2021/05/05 12:10:39;;;;;;;5.53;1.60;;;8.30;99.90;;;;;;5064423;28;20243;-52
2021/05/05 12:13:08;;;;;;;6.60;1.83;;;8.40;99.90;;;;;;5065487;28;20239;-54
2021/05/05 12:15:40;;;;;;;4.87;1.70;;;8.50;99.90;;;;;;5058792;28;20323;-52
2021/05/05 12:18:17;;;;;;;5.00;1.53;;;8.60;99.90;;;;;;5075540;28;20235;-51
2021/05/05 12:20:45;;;;;;;6.30;1.80;;;8.70;99.90;;;;;;5065351;28;20246;-52
2021/05/05 12:23:12;;;;;;;5.43;1.83;;;8.70;99.90;;;;;;5065888;28;20238;-52
2021/05/05 12:25:40;;;;;;;6.47;1.77;;;8.60;99.90;;;;;;5068222;28;20236;-51
2021/05/05 12:28:13;;;;;;;4.77;1.50;;;8.70;99.90;;;;;;5060868;28;20738;-52
2021/05/05 12:30:45;;;;;;;5.27;1.57;;;8.90;99.90;;;;;;5065824;28;20310;-55
2021/05/05 12:33:15;;;;;;;4.03;1.60;;;9.00;99.90;;;;;;5065742;28;20245;-51
2021/05/05 12:35:43;;;;;;;6.23;1.47;;;9.10;99.90;;;;;;5065695;28;20967;-53
2021/05/05 12:38:17;;;;;;;5.00;1.80;;;9.10;99.90;;;;;;5065944;28;20282;-52
2021/05/05 12:40:45;;;;;;;4.80;1.33;;;9.10;99.90;;;;;;5065136;28;20660;-52
2021/05/05 12:43:23;;;;;;;5.20;1.93;;;9.10;99.90;;;;;;5066149;28;20286;-53
2021/05/05 12:45:53;;;;;;;6.83;1.70;;;9.00;99.90;;;;;;5066424;28;20715;-53
2021/05/05 12:48:27;;;;;;;7.47;1.70;;;8.90;99.90;;;;;;5065467;28;20277;-51
2021/05/05 12:51:05;;;;;;;5.07;1.40;;;8.80;99.90;;;;;;5065558;28;20255;-51
2021/05/05 12:53:52;;;;;;;4.93;1.77;;;8.80;99.90;;;;;;5066132;28;20700;-52
2021/05/05 12:56:38;;;;;;;6.00;1.87;;;8.80;99.90;;;;;;5066515;28;20243;-52
2021/05/05 12:59:07;;;;;;;5.27;2.07;;;9.00;99.90;;;;;;5060034;28;20624;-53
2021/05/05 13:01:36;;;;;;;7.83;2.07;;;9.20;99.90;;;;;;5064160;28;20277;-52
2021/05/05 13:04:04;;;;;;;4.87;1.90;;;9.10;99.90;;;;;;5065491;28;20243;-52
2021/05/05 13:06:43;;;;;;;6.97;1.97;;;9.10;99.90;;;;;;5065583;28;20698;-51
2021/05/05 13:09:16;;;;;;;7.13;2.07;;;9.00;99.90;;;;;;5061741;28;20237;-53
2021/05/05 13:11:47;;;;;;;7.40;2.30;;;9.00;99.90;;;;;;5064941;28;20243;-51
2021/05/05 13:14:19;;;;;;;5.03;1.93;;;8.90;99.90;;;;;;5064455;28;20255;-52
2021/05/05 13:17:04;;;;;;;9.10;2.40;;;8.80;99.90;;;;;;5064085;28;20780;-51
2021/05/05 13:20:18;;;;;;;6.23;2.63;;;8.70;99.90;;;;;;5064287;28;20234;-53
2021/05/05 13:31:24;;;;;;;10.73;2.43;;;8.60;99.90;;;;;;5064590;28;20448;-51
2021/05/05 13:34:08;;;;;;;9.17;2.33;;;8.60;99.90;;;;;;5065288;28;20599;-54
2021/05/05 13:36:56;;;;;;;5.97;1.93;;;8.50;99.90;;;;;;5060017;28;20771;-51
2021/05/05 13:39:30;;;;;;;7.57;1.90;;;8.60;99.90;;;;;;5064246;28;20298;-51
2021/05/05 13:42:02;;;;;;;11.30;2.70;;;8.70;99.90;;;;;;5061742;28;20599;-51
2021/05/05 13:44:37;;;;;;;7.33;2.33;;;8.70;99.90;;;;;;5065145;28;20688;-54
2021/05/05 13:47:19;;;;;;;8.33;2.30;;;8.80;99.90;;;;;;5044672;28;20239;-53
2021/05/05 13:49:51;;;;;;;7.00;2.20;;;9.00;99.90;;;;;;5046855;28;20569;-55
2021/05/05 13:52:18;;;;;;;8.80;2.63;;;9.10;99.90;;;;;;5042325;28;20803;-53
2021/05/05 13:55:07;;;;;;;8.07;2.07;;;9.10;99.90;;;;;;5047993;28;20697;-51
2021/05/05 13:57:34;;;;;;;9.50;2.60;;;9.10;99.90;;;;;;5048191;28;20266;-53
2021/05/05 14:00:05;;;;;;;12.60;2.80;;;9.00;99.90;;;;;;5047459;28;20240;-49
2021/05/05 14:02:39;;;;;;;10.73;2.50;;;9.00;99.90;;;;;;5045961;28;20390;-50
2021/05/05 14:05:11;;;;;;;8.00;2.30;;;8.90;99.90;;;;;;5050090;28;20731;-53
2021/05/05 14:07:38;;;;;;;8.33;2.37;;;9.00;99.90;;;;;;5055064;28;20786;-50